Time;durP1;ratioP1;P1;durP2;ratioP2;P2;SDS_P1;SDS_P2;PMS_P1;PMS_P2;Temp;Humidity;BMP_temperature;BMP_pressure;BME280_temperature;BME280_humidity;BME280_pressure;Samples;Min_cycle;Max_cycle;Signal;HPM_P1;HPM_P2
2022/03/06 00:01:05;;;;;;;32.30;14.03;;;;;;;4.74;38.52;97671.06;5036628;28;20708;-69
2022/03/06 00:03:31;;;;;;;24.87;14.17;;;;;;;4.80;38.92;97663.75;5035177;28;20230;-70
2022/03/06 00:05:56;;;;;;;29.07;14.03;;;;;;;4.77;38.69;97670.00;5033572;28;20217;-71
2022/03/06 00:08:22;;;;;;;26.03;14.60;;;;;;;4.78;38.67;97669.06;5033527;28;20208;-71
2022/03/06 00:10:48;;;;;;;29.13;14.40;;;;;;;4.77;38.77;97670.00;5016226;28;20203;-70
2022/03/06 00:13:14;;;;;;;25.83;14.73;;;;;;;4.72;39.17;97667.72;5033776;28;20180;-70
2022/03/06 00:15:43;;;;;;;24.40;13.63;;;;;;;4.72;38.87;97665.13;5033537;28;20498;-71
2022/03/06 00:18:08;;;;;;;25.33;14.33;;;;;;;4.67;38.93;97666.38;5033742;28;20458;-71
2022/03/06 00:20:34;;;;;;;23.47;13.67;;;;;;;4.37;39.35;97663.16;5033747;28;20806;-72
2022/03/06 00:23:00;;;;;;;26.90;14.97;;;;;;;4.53;39.19;97664.72;5033374;28;20738;-71
2022/03/06 00:25:25;;;;;;;21.60;12.67;;;;;;;4.62;39.28;97666.69;5033111;28;20193;-72
2022/03/06 00:27:51;;;;;;;25.10;14.20;;;;;;;4.56;39.57;97662.75;5033372;28;20178;-72
2022/03/06 00:30:16;;;;;;;25.10;14.80;;;;;;;4.46;39.69;97662.53;5033179;28;20299;-72
2022/03/06 00:32:42;;;;;;;26.90;14.50;;;;;;;4.55;39.20;97663.69;5033434;28;20185;-72
2022/03/06 00:35:08;;;;;;;29.60;15.00;;;;;;;4.57;39.00;97663.56;5032723;28;20183;-71
2022/03/06 00:37:33;;;;;;;26.47;14.10;;;;;;;4.55;39.19;97665.44;5033220;28;20254;-72
2022/03/06 00:39:59;;;;;;;19.40;11.80;;;;;;;4.53;39.12;97662.13;5032360;28;20684;-72
2022/03/06 00:42:24;;;;;;;27.90;14.07;;;;;;;4.49;39.04;97665.84;5033134;28;20215;-73
2022/03/06 00:44:52;;;;;;;21.20;12.80;;;;;;;4.50;39.42;97657.13;5041400;28;20189;-71
2022/03/06 00:47:17;;;;;;;25.03;13.80;;;;;;;4.53;39.32;97660.34;5033180;28;20187;-72
2022/03/06 00:49:43;;;;;;;25.13;14.20;;;;;;;4.48;39.37;97659.81;5033123;28;21012;-71
2022/03/06 00:52:08;;;;;;;23.40;14.00;;;;;;;4.46;39.20;97664.31;5033774;28;20266;-71
2022/03/06 00:54:34;;;;;;;27.30;13.40;;;;;;;4.40;39.99;97655.16;5035162;28;20198;-71
2022/03/06 00:56:59;;;;;;;23.03;13.40;;;;;;;4.41;39.51;97663.75;5036971;28;20181;-71
2022/03/06 00:59:24;;;;;;;21.73;13.00;;;;;;;4.39;39.52;97669.06;5035883;28;20283;-69
2022/03/06 01:01:50;;;;;;;27.00;14.83;;;;;;;4.37;40.28;97670.94;5029556;28;20204;-69
2022/03/06 01:04:15;;;;;;;26.50;13.70;;;;;;;4.30;40.10;97672.25;5033059;28;20227;-71
2022/03/06 01:06:41;;;;;;;24.23;13.73;;;;;;;4.29;40.12;97676.63;5037075;28;20836;-70
2022/03/06 01:09:06;;;;;;;28.10;13.97;;;;;;;4.25;40.39;97674.34;5035114;28;20703;-71
2022/03/06 01:11:35;;;;;;;22.37;13.40;;;;;;;4.25;39.85;97674.34;5035326;28;20211;-71
2022/03/06 01:14:00;;;;;;;25.10;12.53;;;;;;;4.19;40.10;97665.19;5035222;28;20195;-71
2022/03/06 01:16:26;;;;;;;22.93;13.20;;;;;;;4.19;39.99;97680.75;5034028;28;20935;-69
2022/03/06 01:18:51;;;;;;;24.57;13.30;;;;;;;4.15;40.20;97682.72;5035194;28;20196;-70
2022/03/06 01:21:17;;;;;;;26.30;12.33;;;;;;;4.15;40.51;97680.13;5034883;28;20804;-70
2022/03/06 01:23:42;;;;;;;21.67;12.93;;;;;;;4.07;40.56;97677.19;5034932;28;20180;-69
2022/03/06 01:26:08;;;;;;;21.43;13.40;;;;;;;4.12;40.49;97688.13;5033364;28;20184;-68
2022/03/06 01:28:34;;;;;;;24.30;14.37;;;;;;;4.10;40.16;97689.97;5033366;28;20277;-68
2022/03/06 01:30:59;;;;;;;21.87;12.80;;;;;;;4.04;40.54;97679.97;5033093;28;20701;-71
2022/03/06 01:33:25;;;;;;;22.50;12.67;;;;;;;4.07;40.61;97681.56;5032583;28;20207;-70
2022/03/06 01:35:50;;;;;;;23.07;13.60;;;;;;;4.08;40.54;97676.25;5032303;28;20187;-71
2022/03/06 01:38:15;;;;;;;24.77;12.80;;;;;;;4.04;40.39;97682.56;5032743;28;20685;-70
2022/03/06 01:40:41;;;;;;;24.20;13.43;;;;;;;4.05;40.13;97676.47;5032617;28;20204;-69
2022/03/06 01:43:07;;;;;;;27.03;13.87;;;;;;;4.03;40.60;97685.28;5032763;28;20184;-70
2022/03/06 01:45:32;;;;;;;23.60;12.80;;;;;;;4.00;40.32;97681.13;5032298;28;20527;-68
2022/03/06 01:47:58;;;;;;;23.17;13.60;;;;;;;3.90;40.49;97674.88;5032707;28;20195;-68
2022/03/06 01:50:29;;;;;;;33.07;13.27;;;;;;;3.92;40.80;97684.22;5031714;28;20775;-69
2022/03/06 01:52:57;;;;;;;23.90;13.57;;;;;;;3.88;40.56;97679.31;5031796;28;20645;-70
2022/03/06 01:55:24;;;;;;;23.40;12.93;;;;;;;3.86;40.58;97673.41;5031345;28;20438;-68
2022/03/06 01:57:51;;;;;;;22.17;13.40;;;;;;;3.85;40.61;97677.75;5031840;28;20455;-71
2022/03/06 02:00:20;;;;;;;28.43;13.60;;;;;;;3.87;40.64;97670.69;5031533;28;20500;-71
2022/03/06 02:02:45;;;;;;;23.40;13.43;;;;;;;3.87;40.69;97669.88;5031812;28;20965;-70
2022/03/06 02:05:11;;;;;;;22.93;13.40;;;;;;;3.89;40.81;97662.84;5031643;28;20415;-70
2022/03/06 02:07:36;;;;;;;23.20;13.50;;;;;;;3.83;40.63;97658.88;5013815;28;20202;-71
2022/03/06 02:10:03;;;;;;;23.70;12.43;;;;;;;3.86;40.26;97657.84;5014093;28;20238;-70
2022/03/06 02:12:31;;;;;;;22.70;13.50;;;;;;;3.84;40.69;97657.94;5031854;28;20224;-72
2022/03/06 02:14:59;;;;;;;23.20;13.43;;;;;;;3.93;40.41;97659.09;5031457;28;20427;-71
2022/03/06 02:17:26;;;;;;;22.97;13.23;;;;;;;3.96;40.42;97657.16;5031010;28;20431;-71
2022/03/06 02:19:51;;;;;;;19.83;12.77;;;;;;;3.99;40.16;97658.72;5013879;28;20446;-69
2022/03/06 02:22:21;;;;;;;28.50;13.77;;;;;;;3.92;40.21;97660.03;5031436;28;20433;-70
2022/03/06 02:24:46;;;;;;;22.33;12.40;;;;;;;3.81;40.26;97655.56;5032532;28;20184;-70
2022/03/06 02:27:12;;;;;;;23.97;13.00;;;;;;;3.73;40.58;97653.44;5030625;28;20445;-70
2022/03/06 02:29:39;;;;;;;22.80;13.43;;;;;;;3.69;40.62;97657.16;5031423;28;20199;-72
2022/03/06 02:32:06;;;;;;;22.77;13.33;;;;;;;3.66;40.51;97657.34;5031189;28;20275;-72
2022/03/06 02:34:31;;;;;;;23.57;13.13;;;;;;;3.59;40.89;97664.66;4997069;28;20420;-72
2022/03/06 02:36:59;;;;;;;25.43;14.07;;;;;;;3.59;41.51;97656.09;5014829;28;20425;-70
2022/03/06 02:39:25;;;;;;;22.40;12.50;;;;;;;3.63;41.35;97657.56;5031581;28;20620;-71
2022/03/06 02:41:50;;;;;;;26.97;13.60;;;;;;;3.61;41.40;97652.44;5031444;28;20419;-69
2022/03/06 02:44:16;;;;;;;22.07;13.10;;;;;;;3.60;41.17;97657.75;5033449;28;20192;-70
2022/03/06 02:46:45;;;;;;;24.63;13.17;;;;;;;3.57;41.21;97652.75;5031379;28;20229;-72
2022/03/06 02:49:13;;;;;;;24.63;13.87;;;;;;;3.48;41.21;97662.78;5022912;28;20193;-71
2022/03/06 02:51:40;;;;;;;24.07;13.87;;;;;;;3.46;41.08;97656.84;5031426;28;20723;-71
2022/03/06 02:54:05;;;;;;;23.60;14.60;;;;;;;3.50;41.44;97658.34;5031240;28;20509;-70
2022/03/06 02:56:31;;;;;;;23.33;12.97;;;;;;;3.49;41.33;97659.25;5031460;28;21146;-70
2022/03/06 02:58:56;;;;;;;25.27;13.60;;;;;;;3.56;41.12;97656.25;5038244;28;20230;-70
2022/03/06 03:01:22;;;;;;;22.47;13.10;;;;;;;3.57;41.05;97663.13;5038143;28;20240;-70
2022/03/06 03:03:47;;;;;;;27.60;13.70;;;;;;;3.58;41.23;97651.81;5038031;28;20530;-71
2022/03/06 03:06:13;;;;;;;22.73;12.50;;;;;;;3.57;40.93;97661.38;5029081;28;20282;-70
2022/03/06 03:08:38;;;;;;;23.37;13.43;;;;;;;3.51;41.03;97665.19;5033541;28;20173;-70
2022/03/06 03:11:04;;;;;;;21.83;12.80;;;;;;;3.48;41.29;97670.56;5033496;28;20350;-73
2022/03/06 03:13:29;;;;;;;24.03;13.53;;;;;;;3.37;41.23;97662.63;5037075;28;20189;-70
2022/03/06 03:15:55;;;;;;;28.27;13.83;;;;;;;3.39;41.44;97668.53;5034436;28;20200;-69
2022/03/06 03:18:20;;;;;;;23.20;12.33;;;;;;;3.35;41.74;97669.66;5030839;28;20219;-70
2022/03/06 03:20:45;;;;;;;31.00;14.80;;;;;;;3.35;41.75;97667.06;5031027;28;20600;-69
2022/03/06 03:23:11;;;;;;;23.13;12.70;;;;;;;3.32;41.63;97672.44;5030344;28;20184;-68
2022/03/06 03:25:36;;;;;;;24.10;13.50;;;;;;;3.34;41.79;97670.59;5026493;28;20582;-71
2022/03/06 03:28:02;;;;;;;23.07;13.07;;;;;;;3.31;41.88;97671.63;5026540;28;20319;-70
2022/03/06 03:30:28;;;;;;;25.00;12.07;;;;;;;3.29;41.63;97665.69;5030406;28;20224;-70
2022/03/06 03:32:53;;;;;;;22.73;12.80;;;;;;;3.29;41.72;97680.38;5030541;28;20199;-70
2022/03/06 03:35:18;;;;;;;23.40;12.80;;;;;;;3.28;42.17;97678.72;5012612;28;20192;-70
2022/03/06 03:37:44;;;;;;;28.00;13.83;;;;;;;3.28;42.04;97673.53;5030605;28;20216;-70
2022/03/06 03:40:10;;;;;;;28.00;13.77;;;;;;;3.27;41.92;97677.91;5034137;28;20665;-71
2022/03/06 03:42:36;;;;;;;26.10;12.23;;;;;;;3.21;42.17;97673.13;5034427;28;20227;-70
2022/03/06 03:45:03;;;;;;;20.20;11.83;;;;;;;3.21;41.68;97676.53;5034054;28;20429;-70
2022/03/06 03:47:29;;;;;;;24.60;13.23;;;;;;;3.23;42.03;97677.28;5034148;28;20191;-70
2022/03/06 03:49:54;;;;;;;21.10;12.37;;;;;;;3.23;41.98;97682.44;5034375;28;20447;-70
2022/03/06 03:52:20;;;;;;;28.50;13.80;;;;;;;3.21;41.71;97680.88;5034064;28;20867;-70
2022/03/06 03:54:45;;;;;;;21.40;13.07;;;;;;;3.15;42.03;97689.84;5015999;28;20203;-71
2022/03/06 03:57:11;;;;;;;23.70;13.27;;;;;;;3.12;41.98;97690.03;5034017;28;20191;-71
2022/03/06 03:59:36;;;;;;;23.40;11.80;;;;;;;3.11;42.04;97693.56;5033990;28;20203;-71
2022/03/06 04:02:02;;;;;;;22.53;12.30;;;;;;;3.13;41.98;97699.47;5034135;28;20233;-71
2022/03/06 04:04:27;;;;;;;24.93;13.90;;;;;;;3.13;42.42;97696.91;5033788;28;20184;-71
2022/03/06 04:06:53;;;;;;;21.03;12.13;;;;;;;3.10;42.09;97712.63;5034009;28;20319;-71
2022/03/06 04:09:18;;;;;;;24.23;13.30;;;;;;;3.10;42.42;97706.59;5033556;28;20196;-71
2022/03/06 04:11:44;;;;;;;21.20;12.33;;;;;;;3.05;42.37;97707.72;5033810;28;20307;-69
2022/03/06 04:14:09;;;;;;;22.17;12.30;;;;;;;3.01;42.69;97713.19;5033363;28;20283;-71
2022/03/06 04:16:35;;;;;;;23.17;12.50;;;;;;;2.98;42.34;97710.75;5033719;28;20623;-71
2022/03/06 04:19:00;;;;;;;23.70;12.90;;;;;;;2.99;42.51;97709.84;5033851;28;20213;-71
2022/03/06 04:21:25;;;;;;;23.60;13.53;;;;;;;2.94;42.54;97714.44;5015676;28;20204;-70
2022/03/06 04:23:51;;;;;;;26.70;13.60;;;;;;;2.95;42.53;97718.72;5028296;28;20191;-69
2022/03/06 04:26:16;;;;;;;23.57;12.73;;;;;;;2.91;42.63;97718.88;5033294;28;20315;-71
2022/03/06 04:28:42;;;;;;;25.50;12.60;;;;;;;2.95;42.50;97721.31;5033416;28;20184;-71
2022/03/06 04:31:07;;;;;;;23.20;13.10;;;;;;;2.89;42.45;97728.53;5033160;28;20208;-71
2022/03/06 04:33:33;;;;;;;22.30;12.50;;;;;;;2.89;42.68;97722.50;5033539;28;20714;-72
2022/03/06 04:35:58;;;;;;;21.83;12.47;;;;;;;2.86;42.44;97723.53;5033206;28;20180;-71
2022/03/06 04:38:24;;;;;;;22.23;12.50;;;;;;;2.84;42.82;97734.88;5033187;28;20203;-70
2022/03/06 04:40:49;;;;;;;24.87;13.30;;;;;;;2.86;42.89;97733.03;5033396;28;20633;-67
2022/03/06 04:43:14;;;;;;;24.83;14.00;;;;;;;2.87;42.50;97732.13;5032230;28;20184;-71
2022/03/06 04:45:40;;;;;;;25.07;13.93;;;;;;;2.88;42.69;97729.44;5033092;28;20219;-71
2022/03/06 04:48:05;;;;;;;26.57;12.70;;;;;;;2.87;42.51;97730.38;5037384;28;20179;-70
2022/03/06 04:50:31;;;;;;;22.00;12.80;;;;;;;2.90;42.60;97727.56;5033079;28;20298;-71
2022/03/06 04:52:56;;;;;;;26.70;13.10;;;;;;;2.90;42.01;97732.75;5024793;28;20191;-73
2022/03/06 04:55:22;;;;;;;24.37;13.10;;;;;;;2.86;42.43;97733.88;5032671;28;20192;-71
2022/03/06 04:57:47;;;;;;;25.57;13.37;;;;;;;2.89;42.20;97731.13;5038692;28;20212;-69
2022/03/06 05:00:14;;;;;;;25.33;13.53;;;;;;;2.85;42.68;97729.63;5032357;28;20208;-71
2022/03/06 05:02:40;;;;;;;26.67;13.30;;;;;;;2.87;42.59;97732.13;5032504;28;20194;-70
2022/03/06 05:05:06;;;;;;;24.10;13.17;;;;;;;2.86;42.40;97736.47;5032506;28;20434;-70
2022/03/06 05:07:31;;;;;;;24.57;13.40;;;;;;;2.82;42.92;97745.34;5032934;28;20237;-70
2022/03/06 05:09:57;;;;;;;27.30;14.07;;;;;;;2.80;42.78;97741.19;5033007;28;20215;-69
2022/03/06 05:12:22;;;;;;;23.50;13.50;;;;;;;2.79;42.71;97748.09;5033017;28;20234;-71
2022/03/06 05:14:47;;;;;;;22.17;12.43;;;;;;;2.85;42.65;97739.97;5032895;28;20602;-71
2022/03/06 05:17:13;;;;;;;23.77;12.97;;;;;;;2.87;42.58;97747.66;5032737;28;20203;-70
2022/03/06 05:19:38;;;;;;;25.27;13.40;;;;;;;2.84;42.57;97746.09;5045590;28;20282;-70
2022/03/06 05:22:04;;;;;;;26.93;13.67;;;;;;;2.77;42.73;97744.78;5040131;28;20183;-69
2022/03/06 05:24:29;;;;;;;22.03;12.97;;;;;;;2.77;42.78;97755.16;5031494;28;20591;-70
2022/03/06 05:26:55;;;;;;;23.33;13.60;;;;;;;2.74;42.86;97752.72;5032473;28;20180;-70
2022/03/06 05:29:20;;;;;;;28.67;12.67;;;;;;;2.72;43.15;97751.97;5032107;28;20646;-70
2022/03/06 05:31:46;;;;;;;24.20;13.47;;;;;;;2.71;42.91;97750.31;5032113;28;20179;-69
2022/03/06 05:34:11;;;;;;;24.93;13.00;;;;;;;2.67;43.08;97752.25;5031726;28;20192;-70
2022/03/06 05:36:37;;;;;;;22.57;12.37;;;;;;;2.61;43.29;97753.44;5030124;28;20176;-68
2022/03/06 05:39:02;;;;;;;23.80;13.60;;;;;;;2.67;43.21;97756.59;5012502;28;20295;-70
2022/03/06 05:41:28;;;;;;;23.17;13.03;;;;;;;2.66;43.35;97760.94;5030713;28;20214;-69
2022/03/06 05:43:53;;;;;;;23.97;13.47;;;;;;;2.62;43.60;97769.78;5031431;28;20675;-71
2022/03/06 05:46:19;;;;;;;26.90;13.90;;;;;;;2.67;43.24;97777.28;5030873;28;20237;-68
2022/03/06 05:48:44;;;;;;;25.30;13.20;;;;;;;2.64;43.48;97767.13;5013498;28;20260;-70
2022/03/06 05:51:09;;;;;;;23.70;13.50;;;;;;;2.65;43.61;97774.78;5030508;28;20298;-73
2022/03/06 05:53:35;;;;;;;25.77;14.33;;;;;;;2.61;44.08;97774.16;5030719;28;20225;-72
2022/03/06 05:56:01;;;;;;;23.57;13.67;;;;;;;2.66;43.90;97770.44;5029934;28;20188;-70
2022/03/06 05:58:26;;;;;;;26.87;13.70;;;;;;;2.56;44.20;97768.38;5030561;28;20199;-72
2022/03/06 06:00:51;;;;;;;24.33;13.57;;;;;;;2.64;43.86;97774.91;5030204;28;20200;-71
2022/03/06 06:03:17;;;;;;;21.80;12.73;;;;;;;2.68;44.41;97768.59;5030211;28;20193;-72
2022/03/06 06:05:43;;;;;;;22.97;12.57;;;;;;;2.78;43.72;97774.09;5029929;28;20184;-70
2022/03/06 06:08:09;;;;;;;23.60;13.63;;;;;;;2.83;43.95;97778.06;5027832;28;20331;-73
2022/03/06 06:10:35;;;;;;;27.00;14.57;;;;;;;2.85;43.92;97778.81;5030597;28;20499;-71
2022/03/06 06:13:00;;;;;;;28.30;15.73;;;;;;;2.89;43.92;97779.47;5030639;28;20190;-71
2022/03/06 06:15:26;;;;;;;25.73;15.23;;;;;;;2.88;43.83;97773.47;5029402;28;20564;-72
2022/03/06 06:17:51;;;;;;;27.40;15.40;;;;;;;2.89;43.83;97767.38;5030537;28;20214;-71
2022/03/06 06:20:17;;;;;;;27.37;14.20;;;;;;;2.88;43.83;97773.47;5030103;28;20563;-71
2022/03/06 06:22:42;;;;;;;30.73;15.30;;;;;;;2.88;43.89;97772.63;5027470;28;20184;-71
2022/03/06 06:25:08;;;;;;;28.20;14.10;;;;;;;2.92;43.86;97772.34;5029789;28;20644;-72
2022/03/06 06:27:34;;;;;;;25.20;12.97;;;;;;;2.96;43.62;97770.41;5030381;28;20188;-71
2022/03/06 06:29:59;;;;;;;26.03;13.70;;;;;;;3.10;43.92;97768.75;5030598;28;20442;-71
2022/03/06 06:32:24;;;;;;;26.67;14.00;;;;;;;3.23;43.59;97772.28;5029639;28;20183;-71
2022/03/06 06:34:50;;;;;;;28.67;15.53;;;;;;;3.31;43.62;97764.03;5027791;28;20188;-70
2022/03/06 06:37:15;;;;;;;26.40;15.10;;;;;;;3.42;43.61;97769.41;5029773;28;20603;-71
2022/03/06 06:39:41;;;;;;;25.90;15.90;;;;;;;3.52;43.29;97770.53;5010949;28;20208;-70
2022/03/06 06:42:07;;;;;;;27.30;16.13;;;;;;;3.63;43.16;97775.03;5031312;28;20219;-71
2022/03/06 06:44:33;;;;;;;25.97;15.00;;;;;;;3.77;43.29;97773.34;5022421;28;20841;-73
2022/03/06 06:47:00;;;;;;;25.53;14.40;;;;;;;3.86;42.72;97774.53;5030536;28;20423;-70
2022/03/06 06:49:25;;;;;;;29.23;15.23;;;;;;;3.98;43.09;97773.78;5030199;28;20657;-71
2022/03/06 06:51:50;;;;;;;31.53;15.63;;;;;;;4.00;42.91;97779.69;5029870;28;20500;-71
2022/03/06 06:54:16;;;;;;;26.07;14.77;;;;;;;4.12;43.02;97784.09;5026110;28;20835;-71
2022/03/06 06:56:42;;;;;;;23.90;14.57;;;;;;;4.24;42.45;97781.66;5029947;28;20191;-70
2022/03/06 06:59:08;;;;;;;25.07;14.00;;;;;;;4.23;43.29;97782.59;5030168;28;20212;-71
2022/03/06 07:01:34;;;;;;;24.80;14.13;;;;;;;4.42;42.93;97796.03;5032756;28;20470;-70
2022/03/06 07:03:59;;;;;;;25.10;14.50;;;;;;;4.51;42.97;97779.03;5031332;28;20519;-71
2022/03/06 07:06:25;;;;;;;23.53;13.93;;;;;;;4.65;42.40;97788.53;5033271;28;20233;-72
2022/03/06 07:08:50;;;;;;;27.53;14.80;;;;;;;4.85;42.97;97781.19;5033119;28;20256;-70
2022/03/06 07:11:16;;;;;;;26.30;14.50;;;;;;;4.99;41.64;97781.09;5030964;28;20219;-72
2022/03/06 07:13:41;;;;;;;22.93;14.30;;;;;;;5.00;41.65;97787.94;5031716;28;20562;-71
2022/03/06 07:16:07;;;;;;;24.87;15.03;;;;;;;5.05;41.99;97793.66;5034322;28;20234;-71
2022/03/06 07:18:32;;;;;;;30.57;14.40;;;;;;;5.12;42.19;97793.25;5034038;28;20251;-71
2022/03/06 07:20:57;;;;;;;28.83;13.57;;;;;;;5.17;42.10;97801.56;5034654;28;20206;-72
2022/03/06 07:23:23;;;;;;;23.93;14.30;;;;;;;5.20;42.60;97793.56;5035010;28;20187;-71
2022/03/06 07:25:48;;;;;;;21.10;12.83;;;;;;;5.25;42.21;97807.09;5034442;28;20233;-72
2022/03/06 07:28:14;;;;;;;26.70;14.17;;;;;;;5.28;42.23;97793.03;5034483;28;20249;-72
2022/03/06 07:30:39;;;;;;;25.37;15.63;;;;;;;5.27;42.24;97797.41;5033961;28;20228;-71
2022/03/06 07:33:05;;;;;;;27.87;15.87;;;;;;;5.21;42.91;97797.81;5037552;28;20320;-71
2022/03/06 07:35:31;;;;;;;27.20;16.70;;;;;;;5.30;42.08;97802.38;5035446;28;20656;-72
2022/03/06 07:37:58;;;;;;;27.13;16.67;;;;;;;5.34;42.41;97797.84;5034618;28;20519;-71
2022/03/06 07:40:24;;;;;;;23.93;15.37;;;;;;;5.49;42.39;97801.97;5035437;28;20527;-72
2022/03/06 07:42:50;;;;;;;26.80;15.67;;;;;;;5.60;41.28;97803.84;5030195;28;20413;-70
2022/03/06 07:45:16;;;;;;;25.30;15.83;;;;;;;5.61;41.67;97804.66;5033039;28;20422;-70
2022/03/06 07:47:42;;;;;;;27.30;16.40;;;;;;;5.66;41.94;97808.63;5036007;28;20182;-70
2022/03/06 07:50:09;;;;;;;26.20;15.70;;;;;;;5.73;41.82;97810.78;5019089;28;20506;-71
2022/03/06 07:52:35;;;;;;;24.10;14.90;;;;;;;5.73;41.87;97808.19;5034990;28;20267;-68
2022/03/06 07:55:01;;;;;;;22.20;13.93;;;;;;;5.76;41.57;97819.19;5037119;28;20433;-71
2022/03/06 07:57:26;;;;;;;25.50;15.33;;;;;;;5.84;41.13;97808.25;5035371;28;22768;-70
2022/03/06 07:59:52;;;;;;;25.03;14.90;;;;;;;5.86;41.26;97811.59;5034969;28;20212;-71
2022/03/06 08:02:17;;;;;;;24.77;14.20;;;;;;;5.92;41.24;97812.94;5026281;28;20192;-70
2022/03/06 08:04:43;;;;;;;24.73;15.27;;;;;;;5.92;41.45;97818.94;5033163;28;20263;-71
2022/03/06 08:07:08;;;;;;;27.43;15.90;;;;;;;6.03;41.29;97817.41;5033898;28;20273;-71
2022/03/06 08:09:34;;;;;;;24.07;14.63;;;;;;;6.12;41.03;97816.75;5033725;28;20238;-70
2022/03/06 08:12:00;;;;;;;24.80;15.67;;;;;;;6.28;40.53;97814.72;5033664;28;20524;-71
2022/03/06 08:14:27;;;;;;;24.67;15.27;;;;;;;6.43;40.18;97812.78;5033357;28;20654;-70
2022/03/06 08:16:53;;;;;;;24.07;15.10;;;;;;;6.68;39.92;97815.38;5033405;28;20974;-71
2022/03/06 08:19:18;;;;;;;22.50;14.70;;;;;;;6.90;39.92;97809.38;5032800;28;20515;-70
2022/03/06 08:21:43;;;;;;;26.20;16.20;;;;;;;7.07;39.55;97811.56;5033562;28;20199;-71
2022/03/06 08:24:09;;;;;;;26.13;17.07;;;;;;;7.43;38.89;97816.72;5032763;28;20552;-71
2022/03/06 08:26:34;;;;;;;24.30;14.80;;;;;;;7.73;37.96;97815.28;5032963;28;20237;-70
2022/03/06 08:29:00;;;;;;;23.50;14.80;;;;;;;8.03;38.33;97811.25;5032901;28;20273;-71
2022/03/06 08:31:25;;;;;;;21.67;14.20;;;;;;;8.28;37.32;97811.91;5033181;28;20208;-70
2022/03/06 08:33:53;;;;;;;22.30;14.90;;;;;;;8.57;36.43;97808.72;5024646;28;20654;-70
2022/03/06 08:36:18;;;;;;;22.40;15.20;;;;;;;8.91;36.48;97806.78;5015049;28;20274;-71
2022/03/06 08:38:44;;;;;;;24.63;15.90;;;;;;;9.25;35.25;97811.00;5032674;28;20465;-71
2022/03/06 08:41:09;;;;;;;25.27;15.90;;;;;;;9.47;34.34;97814.41;5032640;28;20687;-70
2022/03/06 08:43:35;;;;;;;24.67;15.80;;;;;;;9.40;34.29;97808.88;5033649;28;20188;-72
2022/03/06 08:46:03;;;;;;;28.50;16.13;;;;;;;9.61;34.75;97805.41;5001273;28;20187;-72
2022/03/06 08:48:29;;;;;;;20.80;14.93;;;;;;;9.95;34.12;97807.72;5032810;28;20237;-74
2022/03/06 08:50:54;;;;;;;22.90;15.73;;;;;;;9.95;33.58;97813.81;5032952;28;21000;-72
2022/03/06 08:53:19;;;;;;;24.37;15.70;;;;;;;9.94;33.30;97811.28;5032537;28;20426;-72
2022/03/06 08:55:45;;;;;;;19.70;14.37;;;;;;;10.26;32.71;97805.84;5032195;28;20653;-71
2022/03/06 08:58:10;;;;;;;22.63;15.57;;;;;;;9.91;31.97;97808.94;5032161;28;20207;-72
2022/03/06 09:00:36;;;;;;;20.87;13.77;;;;;;;9.93;31.72;97801.78;5032611;28;20203;-72
2022/03/06 09:03:01;;;;;;;21.80;14.47;;;;;;;10.25;32.31;97798.97;5025019;28;20212;-73
2022/03/06 09:05:27;;;;;;;19.03;13.37;;;;;;;10.23;31.56;97800.88;5031026;28;20189;-72
2022/03/06 09:07:52;;;;;;;21.93;14.43;;;;;;;10.40;31.54;97796.78;5032698;28;20191;-73
2022/03/06 09:10:18;;;;;;;21.87;14.63;;;;;;;10.59;31.54;97789.91;5032311;28;20219;-71
2022/03/06 09:12:43;;;;;;;19.53;13.37;;;;;;;10.59;30.58;97795.97;5032633;28;20233;-71
2022/03/06 09:15:09;;;;;;;24.13;13.70;;;;;;;10.57;30.11;97797.94;5031526;28;20643;-72
2022/03/06 09:17:35;;;;;;;20.13;12.93;;;;;;;10.43;29.73;97793.09;5032102;28;20179;-73
2022/03/06 09:20:02;;;;;;;19.47;11.60;;;;;;;10.21;29.90;97794.94;5032379;28;20442;-73
2022/03/06 09:22:27;;;;;;;19.40;12.87;;;;;;;10.45;29.59;97805.09;5032089;28;20875;-71
2022/03/06 09:24:53;;;;;;;22.23;13.80;;;;;;;10.29;29.38;97800.34;5031945;28;20449;-71
2022/03/06 09:27:18;;;;;;;21.47;13.20;;;;;;;10.02;30.11;97806.22;5032183;28;20247;-70
2022/03/06 09:29:44;;;;;;;17.67;12.37;;;;;;;10.10;30.32;97805.53;5032161;28;20191;-73
2022/03/06 09:32:09;;;;;;;19.03;13.17;;;;;;;10.04;29.80;97801.66;5031616;28;20206;-72
2022/03/06 09:34:35;;;;;;;18.97;12.50;;;;;;;10.58;29.96;97802.22;5031534;28;20240;-71
2022/03/06 09:37:00;;;;;;;20.03;13.17;;;;;;;10.88;29.57;97789.91;5030874;28;20637;-72
2022/03/06 09:39:26;;;;;;;19.97;13.73;;;;;;;10.89;29.07;97793.34;5031873;28;20214;-72
2022/03/06 09:41:54;;;;;;;21.03;13.57;;;;;;;11.34;28.86;97789.28;5031600;28;20643;-72
2022/03/06 09:44:23;;;;;;;24.57;12.93;;;;;;;11.42;28.42;97785.91;5032076;28;20188;-71
2022/03/06 09:46:52;;;;;;;19.07;12.83;;;;;;;10.90;28.47;97782.72;5031410;28;20426;-72
2022/03/06 09:49:18;;;;;;;20.27;14.00;;;;;;;11.06;28.63;97781.31;5031127;28;20907;-72
2022/03/06 09:51:43;;;;;;;22.00;13.83;;;;;;;11.22;28.29;97786.78;5031482;28;20964;-72
2022/03/06 09:54:10;;;;;;;18.73;13.10;;;;;;;11.36;28.58;97776.81;5031277;28;20423;-71
2022/03/06 09:56:36;;;;;;;19.73;13.37;;;;;;;12.05;27.85;97782.63;5031064;28;20211;-72
2022/03/06 09:59:02;;;;;;;18.70;13.17;;;;;;;12.37;27.66;97780.47;5034594;28;20504;-72
2022/03/06 10:01:28;;;;;;;20.37;13.50;;;;;;;12.69;27.38;97768.56;5031674;28;20298;-73
2022/03/06 10:03:53;;;;;;;21.13;13.27;;;;;;;12.41;27.67;97774.75;5031400;28;20517;-72
2022/03/06 10:06:18;;;;;;;17.47;13.20;;;;;;;12.70;27.46;97771.06;5030446;28;20648;-72
2022/03/06 10:08:44;;;;;;;18.97;13.70;;;;;;;13.08;27.40;97777.91;5023432;28;20176;-72
2022/03/06 10:11:11;;;;;;;19.57;13.63;;;;;;;12.96;26.95;97765.03;5030968;28;20314;-73
2022/03/06 10:13:40;;;;;;;17.70;12.70;;;;;;;13.41;26.28;97762.34;5028846;28;20653;-74
2022/03/06 10:16:19;;;;;;;20.37;13.30;;;;;;;13.17;25.76;97771.72;5030787;28;20422;-73
2022/03/06 10:18:52;;;;;;;21.23;13.30;;;;;;;12.57;25.63;97770.63;5024429;28;21001;-72
2022/03/06 10:21:20;;;;;;;16.47;12.57;;;;;;;12.07;26.15;97783.28;5022927;28;20559;-72
2022/03/06 10:23:47;;;;;;;20.30;13.33;;;;;;;11.54;26.23;97784.75;5031196;28;20418;-73
2022/03/06 10:26:16;;;;;;;17.87;11.80;;;;;;;10.95;26.87;97781.47;5030222;28;20430;-74
2022/03/06 10:29:00;;;;;;;19.20;12.40;;;;;;;10.85;26.88;97789.34;5022950;28;20454;-74
2022/03/06 10:31:30;;;;;;;20.30;13.27;;;;;;;10.72;27.04;97798.34;5030692;28;20457;-73
2022/03/06 10:33:57;;;;;;;20.33;12.83;;;;;;;10.31;27.44;97794.97;5030702;28;20428;-72
2022/03/06 10:36:34;;;;;;;19.93;13.23;;;;;;;9.89;28.21;97803.84;5030188;28;20479;-73
2022/03/06 10:39:00;;;;;;;19.60;13.73;;;;;;;9.68;29.00;97796.06;5030766;28;20798;-72
2022/03/06 10:41:35;;;;;;;21.23;13.90;;;;;;;9.54;28.97;97797.25;5030954;28;20503;-72
2022/03/06 10:44:00;;;;;;;19.00;13.47;;;;;;;9.55;29.27;97801.53;5030836;28;20423;-74
2022/03/06 10:46:26;;;;;;;18.70;12.00;;;;;;;9.56;29.29;97799.72;5033141;28;20490;-71
2022/03/06 10:48:54;;;;;;;19.53;12.87;;;;;;;9.32;28.46;97799.09;5030560;28;20200;-72
2022/03/06 10:51:19;;;;;;;19.90;13.10;;;;;;;9.20;29.02;97789.63;5029109;28;20248;-73
2022/03/06 10:53:51;;;;;;;20.33;12.43;;;;;;;9.17;28.23;97790.72;5030830;28;20454;-73
2022/03/06 10:56:16;;;;;;;21.40;12.10;;;;;;;9.01;27.78;97801.66;5030226;28;20704;-72
2022/03/06 10:58:44;;;;;;;18.77;11.80;;;;;;;8.91;28.04;97791.13;5034738;28;20462;-73
2022/03/06 11:01:10;;;;;;;17.40;11.80;;;;;;;8.89;28.38;97795.63;5036820;28;20210;-73
2022/03/06 11:03:36;;;;;;;18.47;11.97;;;;;;;8.89;28.62;97785.19;5030143;28;20430;-74
2022/03/06 11:06:03;;;;;;;17.37;12.30;;;;;;;8.94;29.22;97792.66;5030649;28;20442;-73
2022/03/06 11:08:29;;;;;;;24.93;12.97;;;;;;;9.29;29.31;97793.25;5030467;28;20793;-71
2022/03/06 11:10:55;;;;;;;21.13;13.10;;;;;;;9.81;28.94;97793.22;5012509;28;20460;-71
2022/03/06 11:13:21;;;;;;;20.07;12.90;;;;;;;10.37;28.59;97790.97;5030346;28;20436;-71
2022/03/06 11:15:46;;;;;;;19.73;14.00;;;;;;;10.66;27.95;97780.53;5030436;28;20262;-72
2022/03/06 11:18:12;;;;;;;19.80;13.67;;;;;;;11.11;27.57;97775.66;5030397;28;20238;-72